Main page
METAR-TAF:

METAR-TAF

Airports :

Taylorville Municipal Airport

Taylorville, Illinois, United States

latitude: 39-32-03N, longitude: 089-19-40W, elevation: 623 ft

Current weather observation

The report was made 22 minutes ago, at 21:55 UTC
Wind 6 mph from the South
Temperature 48°F
Humidity 100%
Pressure 29.75 in. Hg
Visibility: 4 miles
Broken clouds at a height of 800 ft
Overcast at a height of 1500 ft

METAR: KTAZ 012155Z AUTO 19005KT 4SM BKN008 OVC015 09/09 A2975 RMK AO2 T00920086 PWINO

Time: 16:17 (22:17 UTC)


TAF: missing

Weather observations and forecasts of more than 4000 airports (METAR and TAF reports).

The available stations are represented by yellow and red dots on the map.

Hover mouse over dot to see the name of the station.

Then click to see weather observations and forecasts.

To change the map : click on the green buttons with a black cross to zoom in, on the green button with a dash to zoom out, or on the green arrows for adjacent maps.


METAR-TAF: